sensor_id;sensor_type;location;lat;lon;timestamp;pressure;altitude;pressure_sealevel;temperature;humidity
35848;BME280;22332;51.954;20.118;2022-07-29T00:02:56;100664.08;;;11.74;64.54
35848;BME280;22332;51.954;20.118;2022-07-29T00:06:01;100664.35;;;11.73;64.62
35848;BME280;22332;51.954;20.118;2022-07-29T00:09:07;100663.90;;;11.69;64.46
35848;BME280;22332;51.954;20.118;2022-07-29T00:12:12;100662.09;;;11.63;64.47
35848;BME280;22332;51.954;20.118;2022-07-29T00:15:18;100661.36;;;11.64;64.45
35848;BME280;22332;51.954;20.118;2022-07-29T00:18:23;100660.94;;;11.59;64.51
35848;BME280;22332;51.954;20.118;2022-07-29T00:21:28;100664.05;;;11.53;64.72
35848;BME280;22332;51.954;20.118;2022-07-29T00:24:34;100664.73;;;11.44;64.92
35848;BME280;22332;51.954;20.118;2022-07-29T00:27:39;100669.34;;;11.46;65.07
35848;BME280;22332;51.954;20.118;2022-07-29T00:30:45;100664.87;;;11.44;64.99
35848;BME280;22332;51.954;20.118;2022-07-29T00:33:50;100663.60;;;11.44;65.09
35848;BME280;22332;51.954;20.118;2022-07-29T00:36:56;100664.70;;;11.44;64.94
35848;BME280;22332;51.954;20.118;2022-07-29T00:40:02;100669.52;;;11.31;65.30
35848;BME280;22332;51.954;20.118;2022-07-29T00:43:07;100672.88;;;11.22;65.12
35848;BME280;22332;51.954;20.118;2022-07-29T00:46:13;100674.48;;;11.16;65.68
35848;BME280;22332;51.954;20.118;2022-07-29T00:49:18;100676.66;;;11.17;65.47
35848;BME280;22332;51.954;20.118;2022-07-29T00:52:23;100678.30;;;11.19;65.42
35848;BME280;22332;51.954;20.118;2022-07-29T00:55:30;100680.29;;;11.26;65.22
35848;BME280;22332;51.954;20.118;2022-07-29T00:58:35;100679.02;;;11.32;65.47
35848;BME280;22332;51.954;20.118;2022-07-29T01:01:40;100680.64;;;11.26;65.17
35848;BME280;22332;51.954;20.118;2022-07-29T01:04:46;100679.22;;;11.15;65.22
35848;BME280;22332;51.954;20.118;2022-07-29T01:07:55;100678.96;;;11.05;65.34
35848;BME280;22332;51.954;20.118;2022-07-29T01:11:03;100676.65;;;10.89;65.66
35848;BME280;22332;51.954;20.118;2022-07-29T01:14:09;100679.02;;;10.79;65.69
35848;BME280;22332;51.954;20.118;2022-07-29T01:17:20;100681.52;;;10.74;65.73
35848;BME280;22332;51.954;20.118;2022-07-29T01:20:45;100681.52;;;10.70;65.74
35848;BME280;22332;51.954;20.118;2022-07-29T01:24:11;100676.48;;;10.72;66.21
35848;BME280;22332;51.954;20.118;2022-07-29T01:27:37;100671.65;;;10.73;66.09
35848;BME280;22332;51.954;20.118;2022-07-29T01:30:45;100676.11;;;10.74;66.19
35848;BME280;22332;51.954;20.118;2022-07-29T01:33:57;100672.75;;;10.65;66.04
35848;BME280;22332;51.954;20.118;2022-07-29T01:37:08;100673.39;;;10.65;66.11
35848;BME280;22332;51.954;20.118;2022-07-29T01:40:22;100675.84;;;10.62;66.18
35848;BME280;22332;51.954;20.118;2022-07-29T01:43:34;100672.36;;;10.53;66.06
35848;BME280;22332;51.954;20.118;2022-07-29T01:46:46;100675.98;;;10.47;66.11
35848;BME280;22332;51.954;20.118;2022-07-29T01:49:56;100675.99;;;10.41;66.50
35848;BME280;22332;51.954;20.118;2022-07-29T01:53:08;100678.41;;;10.42;66.46
35848;BME280;22332;51.954;20.118;2022-07-29T01:56:15;100680.67;;;10.48;66.50
35848;BME280;22332;51.954;20.118;2022-07-29T01:59:22;100675.10;;;10.51;66.35
35848;BME280;22332;51.954;20.118;2022-07-29T02:02:29;100668.86;;;10.43;66.30
35848;BME280;22332;51.954;20.118;2022-07-29T02:05:37;100667.95;;;10.34;66.35
35848;BME280;22332;51.954;20.118;2022-07-29T02:08:44;100670.61;;;10.32;66.35
35848;BME280;22332;51.954;20.118;2022-07-29T02:11:53;100669.14;;;10.20;66.83
35848;BME280;22332;51.954;20.118;2022-07-29T02:15:03;100674.55;;;10.19;66.64
35848;BME280;22332;51.954;20.118;2022-07-29T02:18:12;100673.16;;;10.17;66.53
35848;BME280;22332;51.954;20.118;2022-07-29T02:21:21;100670.65;;;10.12;66.58
35848;BME280;22332;51.954;20.118;2022-07-29T02:24:29;100672.77;;;10.02;66.73
35848;BME280;22332;51.954;20.118;2022-07-29T02:27:36;100675.30;;;9.90;66.60
35848;BME280;22332;51.954;20.118;2022-07-29T02:30:43;100675.86;;;9.87;66.88
35848;BME280;22332;51.954;20.118;2022-07-29T02:33:49;100677.67;;;9.91;66.79
35848;BME280;22332;51.954;20.118;2022-07-29T02:36:57;100677.31;;;9.93;66.81
35848;BME280;22332;51.954;20.118;2022-07-29T02:40:04;100677.02;;;9.94;66.87
35848;BME280;22332;51.954;20.118;2022-07-29T02:43:12;100676.55;;;9.95;66.91
35848;BME280;22332;51.954;20.118;2022-07-29T02:46:23;100672.05;;;9.90;67.06
35848;BME280;22332;51.954;20.118;2022-07-29T02:49:36;100671.99;;;9.87;67.08
35848;BME280;22332;51.954;20.118;2022-07-29T02:52:47;100668.06;;;9.97;67.23
35848;BME280;22332;51.954;20.118;2022-07-29T02:55:55;100670.11;;;10.08;69.13
35848;BME280;22332;51.954;20.118;2022-07-29T02:59:05;100668.28;;;10.38;67.94
35848;BME280;22332;51.954;20.118;2022-07-29T03:02:15;100662.80;;;10.35;67.67
35848;BME280;22332;51.954;20.118;2022-07-29T03:05:22;100658.80;;;10.46;68.69
35848;BME280;22332;51.954;20.118;2022-07-29T03:08:28;100651.05;;;10.87;70.71
35848;BME280;22332;51.954;20.118;2022-07-29T03:11:35;100655.08;;;11.27;70.05
35848;BME280;22332;51.954;20.118;2022-07-29T03:14:42;100655.95;;;11.38;67.78
35848;BME280;22332;51.954;20.118;2022-07-29T03:17:48;100657.62;;;11.43;68.62
35848;BME280;22332;51.954;20.118;2022-07-29T03:20:54;100660.96;;;11.75;69.83
35848;BME280;22332;51.954;20.118;2022-07-29T03:23:59;100657.39;;;12.13;68.29
35848;BME280;22332;51.954;20.118;2022-07-29T03:27:05;100662.77;;;12.20;67.20
35848;BME280;22332;51.954;20.118;2022-07-29T03:30:12;100661.44;;;12.21;67.52
35848;BME280;22332;51.954;20.118;2022-07-29T03:33:18;100660.66;;;12.38;69.05
35848;BME280;22332;51.954;20.118;2022-07-29T03:36:23;100662.55;;;12.68;68.38
35848;BME280;22332;51.954;20.118;2022-07-29T03:39:33;100668.17;;;12.86;68.90
35848;BME280;22332;51.954;20.118;2022-07-29T03:42:41;100668.17;;;13.04;67.82
35848;BME280;22332;51.954;20.118;2022-07-29T03:45:51;100664.96;;;13.18;68.15
35848;BME280;22332;51.954;20.118;2022-07-29T03:49:01;100667.73;;;13.48;68.34
35848;BME280;22332;51.954;20.118;2022-07-29T03:52:08;100668.94;;;13.75;67.98
35848;BME280;22332;51.954;20.118;2022-07-29T03:55:14;100664.52;;;14.00;67.04
35848;BME280;22332;51.954;20.118;2022-07-29T03:58:21;100658.38;;;14.19;66.97
35848;BME280;22332;51.954;20.118;2022-07-29T04:01:28;100660.84;;;14.49;67.00
35848;BME280;22332;51.954;20.118;2022-07-29T04:04:35;100661.89;;;14.78;66.45
35848;BME280;22332;51.954;20.118;2022-07-29T04:07:42;100657.92;;;15.03;66.48
35848;BME280;22332;51.954;20.118;2022-07-29T04:10:48;100653.67;;;15.33;66.59
35848;BME280;22332;51.954;20.118;2022-07-29T04:13:54;100655.38;;;15.68;66.45
35848;BME280;22332;51.954;20.118;2022-07-29T04:16:59;100656.19;;;16.06;66.02
35848;BME280;22332;51.954;20.118;2022-07-29T04:20:06;100660.55;;;16.49;66.08
35848;BME280;22332;51.954;20.118;2022-07-29T04:23:12;100652.70;;;16.76;65.66
35848;BME280;22332;51.954;20.118;2022-07-29T04:26:17;100652.48;;;16.94;65.13
35848;BME280;22332;51.954;20.118;2022-07-29T04:29:23;100652.77;;;17.11;65.12
35848;BME280;22332;51.954;20.118;2022-07-29T04:32:28;100660.23;;;17.36;65.36
35848;BME280;22332;51.954;20.118;2022-07-29T04:35:36;100660.05;;;17.59;64.96
35848;BME280;22332;51.954;20.118;2022-07-29T04:38:43;100663.09;;;17.77;64.64
35848;BME280;22332;51.954;20.118;2022-07-29T04:41:48;100665.52;;;17.95;64.71
35848;BME280;22332;51.954;20.118;2022-07-29T04:44:54;100671.86;;;18.14;64.69
35848;BME280;22332;51.954;20.118;2022-07-29T04:47:59;100671.81;;;18.25;64.45
35848;BME280;22332;51.954;20.118;2022-07-29T04:51:05;100674.05;;;18.35;64.70
35848;BME280;22332;51.954;20.118;2022-07-29T04:54:10;100675.13;;;18.52;64.64
35848;BME280;22332;51.954;20.118;2022-07-29T04:57:15;100674.29;;;18.67;64.52
35848;BME280;22332;51.954;20.118;2022-07-29T05:00:21;100672.33;;;18.85;64.55
35848;BME280;22332;51.954;20.118;2022-07-29T05:03:27;100667.23;;;19.06;64.10
35848;BME280;22332;51.954;20.118;2022-07-29T05:06:32;100666.18;;;19.20;63.99
35848;BME280;22332;51.954;20.118;2022-07-29T05:09:37;100666.44;;;19.29;63.65
35848;BME280;22332;51.954;20.118;2022-07-29T05:12:43;100665.48;;;19.28;63.68
35848;BME280;22332;51.954;20.118;2022-07-29T05:15:48;100666.48;;;19.34;63.58
35848;BME280;22332;51.954;20.118;2022-07-29T05:18:54;100665.73;;;19.44;63.39
35848;BME280;22332;51.954;20.118;2022-07-29T05:21:59;100669.61;;;19.55;63.07
35848;BME280;22332;51.954;20.118;2022-07-29T05:25:06;100662.98;;;19.60;62.91
35848;BME280;22332;51.954;20.118;2022-07-29T05:28:13;100659.95;;;19.67;62.94
35848;BME280;22332;51.954;20.118;2022-07-29T05:31:19;100661.80;;;19.76;62.80
35848;BME280;22332;51.954;20.118;2022-07-29T05:34:24;100662.28;;;19.88;62.71
35848;BME280;22332;51.954;20.118;2022-07-29T05:37:30;100657.80;;;19.95;62.50
35848;BME280;22332;51.954;20.118;2022-07-29T05:40:35;100660.23;;;20.00;62.33
35848;BME280;22332;51.954;20.118;2022-07-29T05:43:40;100665.11;;;20.03;62.06
35848;BME280;22332;51.954;20.118;2022-07-29T05:46:46;100669.33;;;20.07;62.10
35848;BME280;22332;51.954;20.118;2022-07-29T05:49:51;100667.03;;;20.08;61.76
35848;BME280;22332;51.954;20.118;2022-07-29T05:52:56;100659.98;;;20.05;61.71
35848;BME280;22332;51.954;20.118;2022-07-29T05:56:04;100661.52;;;19.96;61.80
35848;BME280;22332;51.954;20.118;2022-07-29T05:59:09;100658.79;;;19.93;61.74
35848;BME280;22332;51.954;20.118;2022-07-29T06:02:15;100659.71;;;19.95;61.69
35848;BME280;22332;51.954;20.118;2022-07-29T06:05:21;100661.26;;;19.95;61.53
35848;BME280;22332;51.954;20.118;2022-07-29T06:08:26;100661.59;;;19.90;61.33
35848;BME280;22332;51.954;20.118;2022-07-29T06:11:32;100661.25;;;19.91;61.54
35848;BME280;22332;51.954;20.118;2022-07-29T06:14:37;100661.71;;;19.95;61.53
35848;BME280;22332;51.954;20.118;2022-07-29T06:17:43;100667.73;;;19.97;61.19
35848;BME280;22332;51.954;20.118;2022-07-29T06:20:48;100666.43;;;19.97;61.16
35848;BME280;22332;51.954;20.118;2022-07-29T06:23:53;100664.60;;;19.99;61.11
35848;BME280;22332;51.954;20.118;2022-07-29T06:26:59;100673.30;;;19.97;60.84
35848;BME280;22332;51.954;20.118;2022-07-29T06:30:06;100674.29;;;19.91;60.98
35848;BME280;22332;51.954;20.118;2022-07-29T06:33:17;100670.27;;;19.90;61.00
35848;BME280;22332;51.954;20.118;2022-07-29T06:36:23;100670.58;;;19.92;60.95
35848;BME280;22332;51.954;20.118;2022-07-29T06:39:28;100671.10;;;19.95;60.90
35848;BME280;22332;51.954;20.118;2022-07-29T06:42:33;100672.84;;;19.98;60.85
35848;BME280;22332;51.954;20.118;2022-07-29T06:45:39;100674.62;;;20.04;60.72
35848;BME280;22332;51.954;20.118;2022-07-29T06:48:47;100669.53;;;20.08;60.69
35848;BME280;22332;51.954;20.118;2022-07-29T06:51:52;100667.51;;;20.12;60.70
35848;BME280;22332;51.954;20.118;2022-07-29T06:54:58;100670.46;;;20.16;60.38
35848;BME280;22332;51.954;20.118;2022-07-29T06:58:04;100667.02;;;20.19;60.43
35848;BME280;22332;51.954;20.118;2022-07-29T07:01:09;100667.68;;;20.24;60.45
35848;BME280;22332;51.954;20.118;2022-07-29T07:04:14;100666.06;;;20.31;60.21
35848;BME280;22332;51.954;20.118;2022-07-29T07:07:20;100663.11;;;20.37;60.13
35848;BME280;22332;51.954;20.118;2022-07-29T07:10:25;100658.23;;;20.42;59.95
35848;BME280;22332;51.954;20.118;2022-07-29T07:13:31;100658.39;;;20.48;59.90
35848;BME280;22332;51.954;20.118;2022-07-29T07:16:38;100653.69;;;20.51;59.85
35848;BME280;22332;51.954;20.118;2022-07-29T07:19:43;100652.44;;;20.54;59.71
35848;BME280;22332;51.954;20.118;2022-07-29T07:22:49;100652.52;;;20.56;59.52
35848;BME280;22332;51.954;20.118;2022-07-29T07:25:54;100651.48;;;20.60;59.46
35848;BME280;22332;51.954;20.118;2022-07-29T07:28:59;100647.16;;;20.67;59.48
35848;BME280;22332;51.954;20.118;2022-07-29T07:32:06;100653.07;;;20.76;59.43
35848;BME280;22332;51.954;20.118;2022-07-29T07:35:11;100655.95;;;20.83;59.03
35848;BME280;22332;51.954;20.118;2022-07-29T07:38:17;100656.02;;;20.88;58.89
35848;BME280;22332;51.954;20.118;2022-07-29T07:41:22;100656.06;;;20.92;58.89
35848;BME280;22332;51.954;20.118;2022-07-29T07:44:28;100655.30;;;21.00;58.90
35848;BME280;22332;51.954;20.118;2022-07-29T07:47:33;100659.70;;;21.07;58.73
35848;BME280;22332;51.954;20.118;2022-07-29T07:50:38;100652.38;;;21.12;58.46
35848;BME280;22332;51.954;20.118;2022-07-29T07:53:44;100657.87;;;21.15;58.27
35848;BME280;22332;51.954;20.118;2022-07-29T07:56:53;100655.20;;;21.20;57.94
35848;BME280;22332;51.954;20.118;2022-07-29T07:59:58;100647.79;;;21.26;57.98
35848;BME280;22332;51.954;20.118;2022-07-29T08:03:04;100648.60;;;21.34;57.44
35848;BME280;22332;51.954;20.118;2022-07-29T08:06:09;100652.45;;;21.40;56.99
35848;BME280;22332;51.954;20.118;2022-07-29T08:09:15;100653.55;;;21.48;56.81
35848;BME280;22332;51.954;20.118;2022-07-29T08:12:20;100655.38;;;21.58;57.03
35848;BME280;22332;51.954;20.118;2022-07-29T08:15:25;100655.91;;;21.70;56.46
35848;BME280;22332;51.954;20.118;2022-07-29T08:18:31;100652.25;;;21.80;56.50
35848;BME280;22332;51.954;20.118;2022-07-29T08:21:37;100649.26;;;21.94;56.37
35848;BME280;22332;51.954;20.118;2022-07-29T08:24:43;100647.55;;;22.06;55.60
35848;BME280;22332;51.954;20.118;2022-07-29T08:27:51;100648.82;;;22.16;54.92
35848;BME280;22332;51.954;20.118;2022-07-29T08:30:56;100648.85;;;22.24;54.84
35848;BME280;22332;51.954;20.118;2022-07-29T08:34:02;100645.23;;;22.35;55.00
35848;BME280;22332;51.954;20.118;2022-07-29T08:37:08;100648.23;;;22.45;54.27
35848;BME280;22332;51.954;20.118;2022-07-29T08:40:13;100652.52;;;22.54;53.48
35848;BME280;22332;51.954;20.118;2022-07-29T08:43:19;100647.89;;;22.72;54.30
35848;BME280;22332;51.954;20.118;2022-07-29T08:46:25;100648.17;;;22.93;53.77
35848;BME280;22332;51.954;20.118;2022-07-29T08:49:30;100639.11;;;23.14;53.90
35848;BME280;22332;51.954;20.118;2022-07-29T08:52:39;100637.67;;;23.36;53.36
35848;BME280;22332;51.954;20.118;2022-07-29T08:55:48;100637.89;;;23.62;53.24
35848;BME280;22332;51.954;20.118;2022-07-29T08:58:53;100635.75;;;23.74;52.81
35848;BME280;22332;51.954;20.118;2022-07-29T09:02:00;100633.55;;;23.84;52.16
35848;BME280;22332;51.954;20.118;2022-07-29T09:05:08;100637.84;;;23.91;51.88
35848;BME280;22332;51.954;20.118;2022-07-29T09:08:13;100635.37;;;23.99;51.81
35848;BME280;22332;51.954;20.118;2022-07-29T09:11:19;100638.59;;;24.02;52.03
35848;BME280;22332;51.954;20.118;2022-07-29T09:14:25;100637.46;;;24.00;51.68
35848;BME280;22332;51.954;20.118;2022-07-29T09:17:44;100635.48;;;24.03;51.39
35848;BME280;22332;51.954;20.118;2022-07-29T09:20:53;100630.66;;;24.09;51.50
35848;BME280;22332;51.954;20.118;2022-07-29T09:24:16;100629.86;;;24.20;51.29
35848;BME280;22332;51.954;20.118;2022-07-29T09:27:24;100631.09;;;24.32;51.03
35848;BME280;22332;51.954;20.118;2022-07-29T09:30:30;100628.54;;;24.53;50.83
35848;BME280;22332;51.954;20.118;2022-07-29T09:33:35;100630.55;;;24.76;49.88
35848;BME280;22332;51.954;20.118;2022-07-29T09:36:45;100634.86;;;24.95;49.41
35848;BME280;22332;51.954;20.118;2022-07-29T09:39:51;100624.83;;;25.13;49.64
35848;BME280;22332;51.954;20.118;2022-07-29T09:42:56;100618.98;;;25.35;49.53
35848;BME280;22332;51.954;20.118;2022-07-29T09:46:12;100620.11;;;25.54;48.53
35848;BME280;22332;51.954;20.118;2022-07-29T09:49:18;100613.85;;;25.56;48.34
35848;BME280;22332;51.954;20.118;2022-07-29T09:52:24;100618.14;;;25.57;48.13
35848;BME280;22332;51.954;20.118;2022-07-29T09:55:29;100610.09;;;25.56;47.94
35848;BME280;22332;51.954;20.118;2022-07-29T09:58:35;100611.43;;;25.59;47.73
35848;BME280;22332;51.954;20.118;2022-07-29T10:01:40;100608.60;;;25.57;47.97
35848;BME280;22332;51.954;20.118;2022-07-29T10:04:45;100608.89;;;25.53;47.96
35848;BME280;22332;51.954;20.118;2022-07-29T10:07:54;100605.27;;;25.50;47.34
35848;BME280;22332;51.954;20.118;2022-07-29T10:11:10;100609.98;;;25.44;46.80
35848;BME280;22332;51.954;20.118;2022-07-29T10:14:16;100605.42;;;25.33;46.92
35848;BME280;22332;51.954;20.118;2022-07-29T10:17:22;100600.09;;;25.20;46.99
35848;BME280;22332;51.954;20.118;2022-07-29T10:20:29;100602.45;;;25.08;46.84
35848;BME280;22332;51.954;20.118;2022-07-29T10:23:35;100595.67;;;24.98;46.84
35848;BME280;22332;51.954;20.118;2022-07-29T10:26:41;100594.24;;;24.87;46.64
35848;BME280;22332;51.954;20.118;2022-07-29T10:29:46;100598.14;;;24.88;46.35
35848;BME280;22332;51.954;20.118;2022-07-29T10:33:18;100593.14;;;24.86;45.96
35848;BME280;22332;51.954;20.118;2022-07-29T10:36:42;100593.97;;;24.89;45.36
35848;BME280;22332;51.954;20.118;2022-07-29T10:40:00;100589.18;;;24.93;45.70
35848;BME280;22332;51.954;20.118;2022-07-29T10:43:30;100581.67;;;24.99;45.03
35848;BME280;22332;51.954;20.118;2022-07-29T10:46:41;100580.02;;;24.99;45.46
35848;BME280;22332;51.954;20.118;2022-07-29T10:49:56;100585.71;;;24.97;44.47
35848;BME280;22332;51.954;20.118;2022-07-29T10:53:03;100583.73;;;25.01;45.16
35848;BME280;22332;51.954;20.118;2022-07-29T10:56:24;100582.08;;;25.16;44.71
35848;BME280;22332;51.954;20.118;2022-07-29T10:59:30;100585.77;;;25.24;43.77
35848;BME280;22332;51.954;20.118;2022-07-29T11:02:46;100579.04;;;25.38;44.03
35848;BME280;22332;51.954;20.118;2022-07-29T11:05:57;100576.24;;;25.49;44.67
35848;BME280;22332;51.954;20.118;2022-07-29T11:09:18;100572.93;;;25.56;44.48
35848;BME280;22332;51.954;20.118;2022-07-29T11:12:47;100572.49;;;25.47;44.27
35848;BME280;22332;51.954;20.118;2022-07-29T11:15:56;100571.32;;;25.40;43.44
35848;BME280;22332;51.954;20.118;2022-07-29T11:19:20;100570.02;;;25.11;42.16
35848;BME280;22332;51.954;20.118;2022-07-29T11:22:36;100566.91;;;24.96;42.64
35848;BME280;22332;51.954;20.118;2022-07-29T11:25:42;100562.11;;;24.99;43.00
35848;BME280;22332;51.954;20.118;2022-07-29T11:28:56;100563.64;;;25.01;43.50
35848;BME280;22332;51.954;20.118;2022-07-29T11:32:11;100558.71;;;25.09;44.37
35848;BME280;22332;51.954;20.118;2022-07-29T11:35:20;100560.27;;;25.16;43.44
35848;BME280;22332;51.954;20.118;2022-07-29T11:38:28;100551.03;;;25.21;42.61
35848;BME280;22332;51.954;20.118;2022-07-29T11:41:33;100552.72;;;25.23;42.76
35848;BME280;22332;51.954;20.118;2022-07-29T11:48:19;100553.52;;;25.00;42.08
35848;BME280;22332;51.954;20.118;2022-07-29T11:51:33;100549.16;;;25.01;42.85
35848;BME280;22332;51.954;20.118;2022-07-29T11:54:42;100550.47;;;25.06;42.18
35848;BME280;22332;51.954;20.118;2022-07-29T11:57:49;100547.02;;;25.15;42.39
35848;BME280;22332;51.954;20.118;2022-07-29T12:00:56;100545.48;;;25.27;42.42
35848;BME280;22332;51.954;20.118;2022-07-29T12:04:05;100546.65;;;25.36;43.22
35848;BME280;22332;51.954;20.118;2022-07-29T12:07:11;100539.06;;;25.48;42.65
35848;BME280;22332;51.954;20.118;2022-07-29T12:10:16;100536.02;;;25.58;43.06
35848;BME280;22332;51.954;20.118;2022-07-29T12:13:22;100537.78;;;25.62;42.42
35848;BME280;22332;51.954;20.118;2022-07-29T12:16:37;100537.67;;;25.62;42.33
35848;BME280;22332;51.954;20.118;2022-07-29T12:19:44;100535.05;;;25.62;41.78
35848;BME280;22332;51.954;20.118;2022-07-29T12:22:50;100532.84;;;25.63;41.92
35848;BME280;22332;51.954;20.118;2022-07-29T12:25:59;100529.85;;;25.71;42.15
35848;BME280;22332;51.954;20.118;2022-07-29T12:29:04;100534.04;;;25.76;41.38
35848;BME280;22332;51.954;20.118;2022-07-29T12:32:10;100535.98;;;25.77;41.88
35848;BME280;22332;51.954;20.118;2022-07-29T12:35:18;100534.29;;;25.84;41.17
35848;BME280;22332;51.954;20.118;2022-07-29T12:38:25;100536.14;;;25.90;41.49
35848;BME280;22332;51.954;20.118;2022-07-29T12:41:31;100531.89;;;25.93;41.93
35848;BME280;22332;51.954;20.118;2022-07-29T12:44:48;100535.18;;;25.88;40.70
35848;BME280;22332;51.954;20.118;2022-07-29T12:47:54;100529.01;;;25.82;41.10
35848;BME280;22332;51.954;20.118;2022-07-29T12:51:01;100525.59;;;25.76;40.84
35848;BME280;22332;51.954;20.118;2022-07-29T12:54:10;100531.66;;;25.68;41.16
35848;BME280;22332;51.954;20.118;2022-07-29T12:57:20;100520.21;;;25.63;40.76
35848;BME280;22332;51.954;20.118;2022-07-29T13:00:26;100515.66;;;25.62;40.88
35848;BME280;22332;51.954;20.118;2022-07-29T13:03:43;100513.19;;;25.58;40.82
35848;BME280;22332;51.954;20.118;2022-07-29T13:06:49;100510.24;;;25.56;40.89
35848;BME280;22332;51.954;20.118;2022-07-29T13:10:14;100510.95;;;25.58;40.56
35848;BME280;22332;51.954;20.118;2022-07-29T13:13:20;100512.75;;;25.61;40.90
35848;BME280;22332;51.954;20.118;2022-07-29T13:16:25;100516.34;;;25.60;40.49
35848;BME280;22332;51.954;20.118;2022-07-29T13:19:39;100510.69;;;25.62;40.85
35848;BME280;22332;51.954;20.118;2022-07-29T13:22:48;100509.33;;;25.63;40.81
35848;BME280;22332;51.954;20.118;2022-07-29T13:25:54;100501.62;;;25.69;40.26
35848;BME280;22332;51.954;20.118;2022-07-29T13:28:59;100496.48;;;25.70;40.40
35848;BME280;22332;51.954;20.118;2022-07-29T13:32:05;100493.09;;;25.65;40.45
35848;BME280;22332;51.954;20.118;2022-07-29T13:35:11;100489.80;;;25.65;40.92
35848;BME280;22332;51.954;20.118;2022-07-29T13:38:17;100486.08;;;25.64;41.33
35848;BME280;22332;51.954;20.118;2022-07-29T13:41:22;100486.99;;;25.60;41.31
35848;BME280;22332;51.954;20.118;2022-07-29T13:44:28;100485.89;;;25.59;40.97
35848;BME280;22332;51.954;20.118;2022-07-29T13:47:33;100482.73;;;25.61;41.21
35848;BME280;22332;51.954;20.118;2022-07-29T13:50:39;100485.85;;;25.61;40.87
35848;BME280;22332;51.954;20.118;2022-07-29T13:53:44;100475.77;;;25.65;40.51
35848;BME280;22332;51.954;20.118;2022-07-29T13:56:51;100476.58;;;25.68;40.43
35848;BME280;22332;51.954;20.118;2022-07-29T13:59:57;100472.21;;;25.62;40.88
35848;BME280;22332;51.954;20.118;2022-07-29T14:03:02;100478.46;;;25.61;41.03
35848;BME280;22332;51.954;20.118;2022-07-29T14:06:08;100477.41;;;25.57;40.95
35848;BME280;22332;51.954;20.118;2022-07-29T14:09:13;100476.23;;;25.47;40.32
35848;BME280;22332;51.954;20.118;2022-07-29T14:12:18;100471.09;;;25.39;40.65
35848;BME280;22332;51.954;20.118;2022-07-29T14:15:24;100470.92;;;25.34;40.40
35848;BME280;22332;51.954;20.118;2022-07-29T14:18:29;100468.61;;;25.31;40.96
35848;BME280;22332;51.954;20.118;2022-07-29T14:21:35;100465.70;;;25.29;40.66
35848;BME280;22332;51.954;20.118;2022-07-29T14:24:40;100465.89;;;25.32;40.53
35848;BME280;22332;51.954;20.118;2022-07-29T14:27:46;100466.29;;;25.29;40.53
35848;BME280;22332;51.954;20.118;2022-07-29T14:30:51;100462.66;;;25.28;40.69
35848;BME280;22332;51.954;20.118;2022-07-29T14:33:56;100462.70;;;25.33;40.84
35848;BME280;22332;51.954;20.118;2022-07-29T14:37:02;100455.73;;;25.28;40.08
35848;BME280;22332;51.954;20.118;2022-07-29T14:40:10;100452.48;;;25.24;39.95
35848;BME280;22332;51.954;20.118;2022-07-29T14:43:16;100452.31;;;25.26;40.57
35848;BME280;22332;51.954;20.118;2022-07-29T14:46:21;100448.91;;;25.22;41.26
35848;BME280;22332;51.954;20.118;2022-07-29T14:49:27;100445.58;;;25.16;40.62
35848;BME280;22332;51.954;20.118;2022-07-29T14:52:32;100438.67;;;25.25;40.93
35848;BME280;22332;51.954;20.118;2022-07-29T14:55:38;100432.73;;;25.35;41.19
35848;BME280;22332;51.954;20.118;2022-07-29T14:58:43;100433.59;;;25.30;40.75
35848;BME280;22332;51.954;20.118;2022-07-29T15:01:48;100429.63;;;25.18;40.70
35848;BME280;22332;51.954;20.118;2022-07-29T15:04:54;100423.34;;;25.02;40.73
35848;BME280;22332;51.954;20.118;2022-07-29T15:08:00;100418.61;;;24.92;40.85
35848;BME280;22332;51.954;20.118;2022-07-29T15:11:06;100416.36;;;24.80;40.50
35848;BME280;22332;51.954;20.118;2022-07-29T15:14:12;100417.62;;;24.75;40.35
35848;BME280;22332;51.954;20.118;2022-07-29T15:17:17;100409.92;;;24.75;40.67
35848;BME280;22332;51.954;20.118;2022-07-29T15:20:24;100412.37;;;24.80;40.62
35848;BME280;22332;51.954;20.118;2022-07-29T15:23:31;100407.71;;;24.84;40.89
35848;BME280;22332;51.954;20.118;2022-07-29T15:26:36;100403.77;;;24.84;41.08
35848;BME280;22332;51.954;20.118;2022-07-29T15:29:42;100401.33;;;24.84;40.69
35848;BME280;22332;51.954;20.118;2022-07-29T15:32:47;100400.77;;;24.84;40.74
35848;BME280;22332;51.954;20.118;2022-07-29T15:35:53;100398.95;;;24.81;40.39
35848;BME280;22332;51.954;20.118;2022-07-29T15:38:58;100395.74;;;24.75;40.60
35848;BME280;22332;51.954;20.118;2022-07-29T15:42:04;100403.89;;;24.67;40.49
35848;BME280;22332;51.954;20.118;2022-07-29T15:45:10;100397.36;;;24.63;40.70
35848;BME280;22332;51.954;20.118;2022-07-29T15:48:16;100397.42;;;24.63;40.61
35848;BME280;22332;51.954;20.118;2022-07-29T15:51:21;100396.02;;;24.66;40.84
35848;BME280;22332;51.954;20.118;2022-07-29T15:54:27;100400.42;;;24.63;40.83
35848;BME280;22332;51.954;20.118;2022-07-29T15:57:32;100404.05;;;24.59;40.90
35848;BME280;22332;51.954;20.118;2022-07-29T16:00:38;100398.13;;;24.55;41.22
35848;BME280;22332;51.954;20.118;2022-07-29T16:03:43;100389.63;;;24.49;41.29
35848;BME280;22332;51.954;20.118;2022-07-29T16:06:49;100389.73;;;24.43;41.43
35848;BME280;22332;51.954;20.118;2022-07-29T16:09:54;100390.59;;;24.35;41.18
35848;BME280;22332;51.954;20.118;2022-07-29T16:13:00;100390.38;;;24.29;41.19